Time;durP1;ratioP1;P1;durP2;ratioP2;P2;SDS_P1;SDS_P2;PMS_P1;PMS_P2;Temp;Humidity;BMP_temperature;BMP_pressure;BME280_temperature;BME280_humidity;BME280_pressure;Samples;Min_cycle;Max_cycle;Signal;HPM_P1;HPM_P2
2023/01/25 00:00:38;;;;;;;29.30;16.50;;;;;;;0.66;69.08;102573.00;10055428;29;20410;-76
2023/01/25 00:05:42;;;;;;;27.65;15.90;;;;;;;0.68;68.89;102574.75;10055440;29;20136;-75
2023/01/25 00:10:45;;;;;;;27.13;15.82;;;;;;;0.69;68.99;102571.25;10052306;29;20128;-76
2023/01/25 00:15:47;;;;;;;25.35;14.35;;;;;;;0.63;69.00;102576.53;10055179;29;20076;-76
2023/01/25 00:20:52;;;;;;;26.67;15.10;;;;;;;0.49;69.15;102551.91;10053860;29;20057;-76
2023/01/25 00:25:57;;;;;;;27.08;15.27;;;;;;;0.54;69.43;102543.06;10055059;29;20091;-76
2023/01/25 00:31:00;;;;;;;25.48;15.13;;;;;;;0.56;69.25;102538.66;10054808;29;20050;-75
2023/01/25 00:36:33;;;;;;;29.83;17.20;;;;;;;0.60;69.45;102527.19;10050467;29;20106;-76
2023/01/25 00:41:36;;;;;;;29.33;17.27;;;;;;;0.45;69.85;102521.09;10054289;29;20090;-77
2023/01/25 00:46:39;;;;;;;30.77;16.85;;;;;;;0.47;69.75;102525.50;10053291;29;20537;-76
2023/01/25 00:51:43;;;;;;;28.73;16.35;;;;;;;0.48;69.83;102524.59;10054594;29;20089;-77
2023/01/25 00:56:46;;;;;;;29.95;17.23;;;;;;;0.52;70.20;102521.06;10060544;29;20054;-76
2023/01/25 01:01:50;;;;;;;30.63;16.70;;;;;;;0.62;70.21;102521.88;10061009;29;20046;-74
2023/01/25 01:06:55;;;;;;;26.17;13.50;;;;;;;0.56;69.89;102512.22;10060984;29;20065;-74
2023/01/25 01:11:57;;;;;;;25.38;14.82;;;;;;;0.47;70.17;102509.63;10060753;29;20101;-76
2023/01/25 01:17:00;;;;;;;28.48;14.77;;;;;;;0.52;70.38;102505.19;10057635;29;20061;-75
2023/01/25 01:22:04;;;;;;;29.95;16.08;;;;;;;0.48;70.70;102513.16;10058146;29;20481;-75
2023/01/25 01:27:07;;;;;;;33.92;18.17;;;;;;;0.45;70.91;102518.47;10063025;29;20109;-74
2023/01/25 01:32:10;;;;;;;33.85;17.05;;;;;;;0.44;70.83;102511.38;10059252;29;20072;-76
2023/01/25 01:37:14;;;;;;;26.25;15.05;;;;;;;0.50;71.10;102511.38;10058387;29;20045;-76
2023/01/25 01:42:17;;;;;;;26.88;15.80;;;;;;;0.53;71.04;102514.00;10057936;29;20046;-76
2023/01/25 01:47:25;;;;;;;30.05;16.83;;;;;;;0.58;70.92;102522.81;10058741;29;20052;-76
2023/01/25 01:52:37;;;;;;;23.03;14.43;;;;;;;0.56;71.11;102517.50;10057620;29;20339;-76
2023/01/25 01:57:44;;;;;;;27.00;15.68;;;;;;;0.54;71.06;102516.63;10057976;29;20046;-77
2023/01/25 02:02:50;;;;;;;26.65;14.13;;;;;;;0.46;71.57;102512.25;10056814;29;20073;-76
2023/01/25 02:07:57;;;;;;;20.83;11.63;;;;;;;0.29;72.19;102504.41;10057507;29;20073;-76
2023/01/25 02:13:00;;;;;;;25.00;14.52;;;;;;;0.26;72.53;102515.88;10057359;29;20498;-76
2023/01/25 02:18:03;;;;;;;23.08;12.18;;;;;;;0.28;72.84;102506.19;10058144;29;20115;-76
2023/01/25 02:30:09;;;;;;;25.17;12.43;;;;;;;0.32;73.39;102499.09;10058334;29;20034;-76
2023/01/25 02:35:19;;;;;;;23.27;13.25;;;;;;;0.32;73.66;102485.88;10072124;29;20531;-77
2023/01/25 02:40:21;;;;;;;27.80;15.18;;;;;;;0.36;73.34;102483.22;10055968;29;20084;-77
2023/01/25 02:45:30;;;;;;;24.95;14.23;;;;;;;0.37;73.15;102484.97;10060383;29;20529;-76
2023/01/25 02:50:32;;;;;;;24.27;13.77;;;;;;;0.41;73.61;102479.66;10055749;29;20521;-74
2023/01/25 02:55:36;;;;;;;29.25;15.15;;;;;;;0.37;73.88;102477.03;10054102;29;20054;-76
2023/01/25 03:00:40;;;;;;;27.20;15.38;;;;;;;0.47;73.99;102466.44;10055446;29;20463;-74
2023/01/25 03:05:43;;;;;;;29.55;16.35;;;;;;;0.53;73.92;102461.97;10063858;29;20569;-74
2023/01/25 03:10:46;;;;;;;27.77;15.18;;;;;;;0.51;73.65;102458.47;10056509;29;20042;-77
2023/01/25 03:15:51;;;;;;;25.83;14.63;;;;;;;0.43;73.33;102449.69;10058532;29;20057;-74
2023/01/25 03:20:54;;;;;;;31.00;15.27;;;;;;;0.29;74.12;102443.59;10053850;29;20076;-74
2023/01/25 03:26:04;;;;;;;29.27;15.20;;;;;;;-0.22;75.17;102430.63;10055919;29;20057;-76
2023/01/25 03:31:11;;;;;;;29.25;14.45;;;;;;;-0.09;75.94;102423.53;10054741;29;20053;-76
2023/01/25 03:36:14;;;;;;;26.60;13.27;;;;;;;-0.01;76.24;102411.16;10054925;29;20053;-76
2023/01/25 03:41:17;;;;;;;31.20;15.82;;;;;;;0.21;75.81;102403.13;10055711;29;20049;-76
2023/01/25 03:46:22;;;;;;;23.30;12.32;;;;;;;0.05;75.19;102404.94;10054417;29;20084;-76
2023/01/25 03:51:25;;;;;;;21.25;11.70;;;;;;;0.05;75.80;102397.91;10054219;29;20140;-75
2023/01/25 03:56:28;;;;;;;24.55;12.38;;;;;;;0.16;75.80;102411.97;10082240;23;20086;-74
2023/01/25 04:01:42;;;;;;;21.85;11.10;;;;;;;0.13;75.61;102397.88;10190460;29;20111;-74
2023/01/25 04:06:45;;;;;;;21.52;11.27;;;;;;;-0.10;76.26;102387.44;10171211;29;20051;-74
2023/01/25 04:11:49;;;;;;;22.35;11.85;;;;;;;-0.12;76.36;102392.69;10171555;29;20083;-74
2023/01/25 04:16:53;;;;;;;17.55;8.48;;;;;;;-0.28;77.04;102391.88;10184626;29;20091;-74
2023/01/25 04:22:19;;;;;;;15.45;8.68;;;;;;;-0.26;77.06;102383.09;10193988;29;20438;-74
2023/01/25 04:27:24;;;;;;;17.75;9.00;;;;;;;-0.23;77.43;102381.31;10195078;29;20044;-74
2023/01/25 04:32:37;;;;;;;20.40;10.50;;;;;;;-0.20;77.34;102381.28;10178815;29;20062;-74
2023/01/25 04:37:54;;;;;;;22.45;11.18;;;;;;;-0.02;77.31;102382.97;10197137;29;20040;-74
2023/01/25 04:42:59;;;;;;;17.42;9.50;;;;;;;-0.03;77.18;102375.03;10191698;29;20095;-74
2023/01/25 04:48:08;;;;;;;21.27;9.43;;;;;;;-0.20;77.16;102364.56;10188583;29;20052;-74
2023/01/25 04:53:14;;;;;;;22.83;11.10;;;;;;;-0.11;77.63;102365.41;10183997;29;20123;-74
2023/01/25 04:58:17;;;;;;;24.52;11.05;;;;;;;-0.02;77.38;102369.78;10196576;29;20077;-74
2023/01/25 05:03:21;;;;;;;24.90;11.40;;;;;;;0.05;77.68;102367.94;10195541;29;20142;-74
2023/01/25 05:08:24;;;;;;;20.15;10.18;;;;;;;-0.01;77.59;102360.94;10188602;29;20052;-74
2023/01/25 05:13:31;;;;;;;23.58;11.00;;;;;;;0.08;77.89;102357.38;10178513;29;20067;-74
2023/01/25 05:18:47;;;;;;;22.25;11.63;;;;;;;0.06;77.80;102360.03;10194964;29;20529;-74
2023/01/25 05:24:11;;;;;;;26.77;11.65;;;;;;;0.11;78.17;102357.34;10194045;29;20054;-74
2023/01/25 05:29:14;;;;;;;29.95;12.00;;;;;;;0.08;77.85;102349.44;10200159;29;20086;-74
2023/01/25 05:34:27;;;;;;;24.40;11.52;;;;;;;0.05;77.93;102355.63;10179439;29;20504;-74
2023/01/25 05:39:30;;;;;;;28.90;12.77;;;;;;;0.07;77.96;102345.91;10187374;29;20047;-73
2023/01/25 05:44:33;;;;;;;28.50;12.32;;;;;;;-0.17;78.27;102354.84;10191613;29;20066;-73
2023/01/25 05:49:37;;;;;;;31.30;11.85;;;;;;;-0.23;78.87;102349.59;10185999;29;20055;-73
2023/01/25 05:54:41;;;;;;;29.63;12.80;;;;;;;-0.24;79.37;102344.34;10185893;29;20127;-74
2023/01/25 05:59:46;;;;;;;28.17;12.98;;;;;;;-0.12;79.48;102350.44;10181604;29;20407;-73
2023/01/25 06:04:54;;;;;;;27.83;12.90;;;;;;;-0.28;79.67;102338.19;10193699;29;20067;-75
2023/01/25 06:09:57;;;;;;;27.25;12.05;;;;;;;-0.44;79.60;102341.78;10192841;29;20052;-73
2023/01/25 06:15:00;;;;;;;27.33;13.05;;;;;;;-0.62;80.19;102327.75;10187785;29;20100;-73
2023/01/25 06:20:06;;;;;;;30.70;12.60;;;;;;;-0.25;79.89;102335.53;10178747;29;20056;-72
2023/01/25 06:25:16;;;;;;;32.38;13.48;;;;;;;-0.13;79.93;102319.63;10189963;29;20392;-75
2023/01/25 06:30:18;;;;;;;32.65;14.18;;;;;;;-0.08;80.23;102333.69;10193214;29;20052;-75
2023/01/25 06:35:23;;;;;;;36.25;15.35;;;;;;;0.05;79.92;102328.31;10191685;29;20047;-75
2023/01/25 06:40:27;;;;;;;32.72;12.93;;;;;;;-0.04;79.62;102328.38;10185068;29;20054;-75
2023/01/25 06:45:29;;;;;;;38.53;15.23;;;;;;;-0.02;79.86;102334.53;10203774;29;20064;-75
2023/01/25 06:50:33;;;;;;;35.03;14.70;;;;;;;0.00;79.66;102331.00;10186574;29;20397;-75
2023/01/25 06:55:36;;;;;;;34.22;14.35;;;;;;;0.02;79.62;102333.63;10185992;29;20135;-74
2023/01/25 07:00:39;;;;;;;35.20;14.30;;;;;;;-0.24;79.48;102331.13;10177131;29;20086;-73
2023/01/25 07:05:43;;;;;;;36.03;15.40;;;;;;;-0.33;80.38;102337.31;10193703;29;20152;-73
2023/01/25 07:10:53;;;;;;;37.67;15.63;;;;;;;-0.26;80.24;102335.53;10187975;29;20080;-72
2023/01/25 07:15:57;;;;;;;36.35;15.07;;;;;;;-0.15;80.43;102334.59;10180572;29;20039;-75
2023/01/25 07:21:06;;;;;;;38.53;15.57;;;;;;;-0.11;80.43;102323.13;10178533;29;20079;-73
2023/01/25 07:26:16;;;;;;;44.58;18.30;;;;;;;-0.12;80.17;102316.06;10191715;29;20127;-73
2023/01/25 07:31:20;;;;;;;40.28;15.88;;;;;;;-0.13;80.22;102322.25;10192253;29;20600;-73
2023/01/25 07:36:25;;;;;;;43.00;15.32;;;;;;;-0.16;80.14;102309.06;10176152;29;20100;-73
2023/01/25 07:41:27;;;;;;;34.42;12.23;;;;;;;-0.02;80.67;102311.63;10179503;29;20459;-73
2023/01/25 07:46:30;;;;;;;38.88;15.65;;;;;;;-0.11;80.32;102311.66;10184798;29;20079;-74
2023/01/25 07:51:35;;;;;;;45.33;17.40;;;;;;;-0.35;81.26;102315.34;10186727;29;20040;-74
2023/01/25 07:56:39;;;;;;;38.85;16.65;;;;;;;0.07;81.34;102305.41;10179443;29;20056;-73
2023/01/25 08:01:42;;;;;;;24.65;11.45;;;;;;;0.39;80.54;102302.53;10176099;29;20427;-74
2023/01/25 08:06:46;;;;;;;30.10;14.27;;;;;;;0.36;80.15;102302.56;10201615;29;20052;-74
2023/01/25 08:11:49;;;;;;;33.28;14.57;;;;;;;0.50;79.42;102298.03;10196622;29;20044;-73
2023/01/25 08:16:52;;;;;;;31.73;15.23;;;;;;;0.30;79.33;102298.19;10184572;29;20586;-74
2023/01/25 08:21:56;;;;;;;38.97;14.80;;;;;;;0.27;79.44;102299.97;10192279;29;20082;-73
2023/01/25 08:26:59;;;;;;;41.22;16.58;;;;;;;-0.09;79.76;102291.41;10202721;29;20561;-73
2023/01/25 08:32:03;;;;;;;35.97;13.98;;;;;;;-0.22;79.87;102287.97;10195536;29;20043;-73
2023/01/25 08:37:07;;;;;;;37.05;15.25;;;;;;;-0.28;80.29;102288.88;10186356;29;20052;-73
2023/01/25 08:42:10;;;;;;;35.42;15.65;;;;;;;-0.19;80.44;102280.03;10187955;29;20138;-74
2023/01/25 08:47:13;;;;;;;43.13;15.60;;;;;;;-0.18;80.64;102284.41;10199979;29;20082;-74
2023/01/25 08:52:17;;;;;;;33.45;14.02;;;;;;;-0.31;80.67;102280.97;10194598;29;20127;-74
2023/01/25 08:57:20;;;;;;;40.80;15.07;;;;;;;-0.18;80.84;102265.06;10193673;29;20507;-74
2023/01/25 09:02:23;;;;;;;43.92;17.08;;;;;;;-0.00;80.90;102269.31;10178684;29;20122;-73
2023/01/25 09:07:31;;;;;;;36.88;15.70;;;;;;;0.10;80.82;102255.16;10193937;29;20122;-74
2023/01/25 09:12:34;;;;;;;46.17;17.30;;;;;;;0.21;80.43;102261.25;10196047;29;20123;-74
2023/01/25 09:17:37;;;;;;;41.15;16.25;;;;;;;0.19;80.93;102247.16;10184971;29;20127;-74
2023/01/25 09:22:42;;;;;;;42.47;16.38;;;;;;;0.11;79.96;102247.25;10178567;29;20048;-74
2023/01/25 09:27:45;;;;;;;43.42;16.75;;;;;;;-0.23;80.84;102261.56;10194858;29;20056;-74
2023/01/25 09:32:49;;;;;;;39.55;15.50;;;;;;;-0.22;80.62;102247.47;10197446;29;20100;-74
2023/01/25 09:37:53;;;;;;;42.63;17.58;;;;;;;0.00;81.00;102235.88;10186857;29;20087;-74
2023/01/25 09:43:04;;;;;;;39.33;17.15;;;;;;;0.04;80.26;102244.66;10178492;29;20039;-74
2023/01/25 09:48:18;;;;;;;38.97;14.75;;;;;;;-0.32;80.50;102230.81;10184475;29;20044;-74
2023/01/25 09:53:32;;;;;;;32.38;14.45;;;;;;;-0.35;80.21;102230.84;10190740;29;20140;-74
2023/01/25 09:58:38;;;;;;;34.45;13.52;;;;;;;-0.19;80.21;102218.38;10199619;29;20138;-76
2023/01/25 10:03:47;;;;;;;35.17;14.95;;;;;;;-0.15;80.45;102217.47;10177249;29;20048;-76
2023/01/25 10:09:00;;;;;;;38.78;16.20;;;;;;;-0.12;80.14;102213.03;10189667;29;20067;-76
2023/01/25 10:14:12;;;;;;;38.42;15.48;;;;;;;-0.07;80.37;102207.72;10192062;29;20741;-75
2023/01/25 10:19:22;;;;;;;41.63;16.40;;;;;;;-0.05;79.79;102208.59;10181571;29;20567;-76
2023/01/25 10:24:38;;;;;;;34.22;15.00;;;;;;;-0.36;80.16;102198.22;10175693;29;20483;-76
2023/01/25 10:29:41;;;;;;;37.75;14.18;;;;;;;-0.35;80.84;102194.72;10184156;29;20052;-76
2023/01/25 10:34:46;;;;;;;38.63;15.27;;;;;;;-0.29;80.82;102185.88;10191720;29;20097;-75
2023/01/25 10:40:04;;;;;;;40.22;14.45;;;;;;;-0.41;81.32;102170.09;10185208;29;20119;-75
2023/01/25 10:45:12;;;;;;;37.78;14.70;;;;;;;-0.26;80.79;102163.84;10179464;29;20051;-75
2023/01/25 10:50:43;;;;;;;33.72;13.77;;;;;;;-0.28;80.88;102170.00;10184084;29;20500;-76
2023/01/25 10:55:58;;;;;;;40.60;15.80;;;;;;;-0.20;80.74;102166.44;10188340;29;20080;-76
2023/01/25 11:01:01;;;;;;;37.00;15.68;;;;;;;-0.22;80.83;102152.34;10190015;29;20056;-76
2023/01/25 11:06:05;;;;;;;35.33;14.10;;;;;;;-0.23;81.17;102145.34;10177237;29;20467;-75
2023/01/25 11:11:31;;;;;;;36.75;13.60;;;;;;;-0.59;81.96;102135.03;10189834;29;20051;-77
2023/01/25 11:16:37;;;;;;;38.50;14.52;;;;;;;-0.61;81.96;102130.66;10190177;29;20048;-76
2023/01/25 11:21:51;;;;;;;39.25;14.35;;;;;;;-0.61;81.60;102118.31;10179621;29;20079;-76
2023/01/25 11:27:14;;;;;;;44.70;16.55;;;;;;;-0.43;81.52;102104.13;10173916;29;20042;-76
2023/01/25 11:32:21;;;;;;;;;;;;;;;-0.78;82.03;102099.97;10183655;29;20048;-75
2023/01/25 11:37:40;;;;;;;45.25;14.55;;;;;;;-0.67;81.49;102099.00;10191078;29;19929;-77
2023/01/25 11:42:57;;;;;;;42.90;14.80;;;;;;;-0.69;80.99;102080.53;10177428;29;20594;-75
2023/01/25 11:48:16;;;;;;;41.95;14.10;;;;;;;-0.72;81.06;102073.50;10177538;29;20396;-76
2023/01/25 11:53:44;;;;;;;39.92;14.18;;;;;;;-0.56;80.90;102052.28;10181500;29;20088;-76
2023/01/25 11:59:04;;;;;;;38.15;14.63;;;;;;;-0.54;80.60;102035.56;10183851;29;20199;-76
2023/01/25 12:04:43;;;;;;;45.47;16.20;;;;;;;-0.71;81.52;102026.91;10178267;29;20082;-75
2023/01/25 12:09:56;;;;;;;41.63;15.25;;;;;;;-0.58;80.73;102017.09;10171030;29;20543;-76
2023/01/25 12:15:18;;;;;;;42.15;14.63;;;;;;;-0.54;80.74;102014.44;10190439;29;20122;-76
2023/01/25 12:20:33;;;;;;;36.30;12.75;;;;;;;-0.72;81.00;102015.44;10184749;29;20460;-77
2023/01/25 12:25:51;;;;;;;48.28;15.05;;;;;;;-0.89;81.40;101990.97;10184861;29;20087;-77
2023/01/25 12:30:58;;;;;;;44.10;16.05;;;;;;;-1.06;82.05;101979.69;10174423;29;20512;-75
2023/01/25 12:36:09;;;;;;;35.03;11.63;;;;;;;-1.35;83.33;101966.69;10188756;29;20048;-76
2023/01/25 12:41:21;;;;;;;44.15;17.20;;;;;;;-1.01;82.57;101954.16;10193903;29;20055;-76
2023/01/25 12:46:29;;;;;;;54.45;18.98;;;;;;;-1.22;83.16;101941.97;10172915;29;20095;-72
2023/01/25 12:51:36;;;;;;;52.75;16.23;;;;;;;-0.94;82.11;101918.88;10186869;29;20583;-75
2023/01/25 12:56:46;;;;;;;40.00;14.68;;;;;;;-1.10;81.15;101918.13;10192111;29;20408;-76
2023/01/25 13:01:57;;;;;;;42.10;16.67;;;;;;;-1.11;81.24;101905.84;10191259;29;20040;-75
2023/01/25 13:07:07;;;;;;;44.67;16.92;;;;;;;-1.11;80.82;101886.53;10187103;29;20491;-76
2023/01/25 13:12:11;;;;;;;34.72;14.50;;;;;;;-1.01;80.78;101885.56;10190322;29;20751;-76
2023/01/25 13:17:25;;;;;;;36.17;13.10;;;;;;;-0.97;80.27;101887.25;10197518;29;20043;-77
2023/01/25 13:22:53;;;;;;;37.08;15.27;;;;;;;-1.04;80.19;101865.34;10191740;29;20056;-77
2023/01/25 13:28:26;;;;;;;31.98;13.27;;;;;;;-0.91;79.70;101873.13;10177933;29;20040;-76
2023/01/25 13:33:34;;;;;;;;;;;;;;;-1.05;79.72;101853.03;10172082;29;20064;-74
2023/01/25 13:38:37;;;;;;;35.17;14.50;;;;;;;-1.05;79.91;101850.41;10195995;29;20267;-76
2023/01/25 13:43:42;;;;;;;36.67;14.30;;;;;;;-1.18;80.41;101852.28;10196912;29;20165;-77
2023/01/25 13:48:57;;;;;;;31.83;13.55;;;;;;;-1.22;79.96;101840.00;10178149;29;20059;-75
2023/01/25 13:54:00;;;;;;;29.80;12.48;;;;;;;-1.10;79.80;101827.59;10187149;29;20037;-77
2023/01/25 13:59:03;;;;;;;34.50;13.57;;;;;;;-1.45;80.43;101834.06;10187455;29;20451;-76
2023/01/25 14:04:11;;;;;;;31.33;11.32;;;;;;;-1.74;81.68;101824.59;10195943;29;20047;-76
2023/01/25 14:09:18;;;;;;;34.75;13.15;;;;;;;-1.84;81.90;101833.44;10183039;29;20490;-76
2023/01/25 14:14:26;;;;;;;39.30;14.88;;;;;;;-1.55;81.22;101814.81;10184415;29;20074;-76
2023/01/25 14:19:32;;;;;;;39.17;14.85;;;;;;;-1.52;81.32;101809.50;10192520;29;20052;-76
2023/01/25 14:24:35;;;;;;;34.42;11.63;;;;;;;-2.15;81.96;101831.00;10174615;29;20122;-76
2023/01/25 14:29:38;;;;;;;43.35;15.23;;;;;;;-2.00;81.56;101826.53;10150315;28;20524;-75
2023/01/25 14:34:47;;;;;;;45.95;14.68;;;;;;;-2.01;82.11;101828.28;10144584;28;20046;-76
2023/01/25 14:39:51;;;;;;;48.63;16.55;;;;;;;-1.73;81.37;101821.06;10151517;28;20091;-75
2023/01/25 14:44:54;;;;;;;41.67;15.38;;;;;;;-1.95;82.45;101819.47;10152971;28;20127;-75
2023/01/25 14:50:32;;;;;;;37.38;13.65;;;;;;;-1.92;82.37;101811.53;10138409;29;20047;-75
2023/01/25 14:55:36;;;;;;;33.47;11.57;;;;;;;-2.16;83.32;101807.34;10142152;28;20048;-76
2023/01/25 15:00:40;;;;;;;36.55;12.13;;;;;;;-2.27;83.07;101798.63;10153448;28;20047;-76
2023/01/25 15:05:47;;;;;;;33.42;10.57;;;;;;;-2.52;84.10;101796.09;10151705;28;20433;-74
2023/01/25 15:10:52;;;;;;;42.50;13.90;;;;;;;-2.23;82.78;101787.16;10139483;28;20564;-75
2023/01/25 15:15:57;;;;;;;40.42;14.68;;;;;;;-2.36;83.64;101784.63;10142785;28;20048;-74
2023/01/25 15:21:01;;;;;;;42.60;14.38;;;;;;;-1.61;81.91;101767.44;10155539;28;20119;-76
2023/01/25 15:26:13;;;;;;;42.25;16.38;;;;;;;-1.75;81.37;101772.81;10152040;28;20446;-76
2023/01/25 15:31:18;;;;;;;45.00;15.25;;;;;;;-1.56;81.10;101776.16;10138178;29;20063;-76
2023/01/25 15:36:22;;;;;;;40.15;15.18;;;;;;;-1.53;80.92;101777.91;10143327;28;20632;-76
2023/01/25 15:41:25;;;;;;;42.88;15.82;;;;;;;-1.60;80.51;101758.63;10154274;28;20053;-76
2023/01/25 15:46:32;;;;;;;42.47;16.08;;;;;;;-1.76;80.94;101754.38;10149389;28;20435;-76
2023/01/25 15:51:36;;;;;;;49.00;17.67;;;;;;;-2.14;81.28;101755.50;10139078;28;20139;-76
2023/01/25 15:56:41;;;;;;;48.17;15.43;;;;;;;-1.74;81.01;101750.84;10139333;29;20131;-77
2023/01/25 16:01:44;;;;;;;47.25;17.75;;;;;;;-2.10;81.10;101750.22;10148539;28;20067;-76
2023/01/25 16:06:51;;;;;;;46.05;16.10;;;;;;;-2.20;81.64;101742.41;10150192;28;20051;-76
2023/01/25 16:11:55;;;;;;;45.65;15.73;;;;;;;-2.18;80.84;101748.53;10138605;29;20056;-74
2023/01/25 16:17:01;;;;;;;43.55;16.67;;;;;;;-1.99;80.23;101749.28;10143259;28;20058;-75
2023/01/25 16:22:06;;;;;;;47.25;16.05;;;;;;;-1.99;79.95;101744.00;10147680;28;20438;-76
2023/01/25 16:27:15;;;;;;;57.63;19.20;;;;;;;-2.38;81.55;101736.38;10153811;28;20138;-76
2023/01/25 16:32:18;;;;;;;57.55;18.73;;;;;;;-1.93;80.78;101726.41;10152718;28;20087;-75
2023/01/25 16:37:22;;;;;;;57.78;18.85;;;;;;;-1.93;80.05;101707.94;10149048;28;20274;-76
2023/01/25 16:42:25;;;;;;;57.38;20.50;;;;;;;-1.78;80.31;101712.25;10159504;28;20052;-76
2023/01/25 16:47:28;;;;;;;60.78;19.95;;;;;;;-1.64;80.09;101705.06;10159675;28;20052;-75
2023/01/25 16:52:32;;;;;;;64.10;22.42;;;;;;;-2.27;81.63;101715.25;10151319;28;20058;-76
2023/01/25 16:57:35;;;;;;;56.05;18.73;;;;;;;-2.81;82.14;101705.00;10154858;28;20059;-76
2023/01/25 17:02:40;;;;;;;64.80;20.38;;;;;;;-2.26;81.40;101709.09;10158041;28;20062;-75
2023/01/25 17:08:00;;;;;;;59.50;18.70;;;;;;;-2.54;81.52;101708.38;10158492;28;21287;-72
2023/01/25 17:13:04;;;;;;;54.55;17.20;;;;;;;-2.39;80.48;101697.75;10167082;28;20190;-74
2023/01/25 17:18:07;;;;;;;76.45;23.48;;;;;;;-2.34;80.11;101692.47;10144714;29;20056;-76
2023/01/25 17:23:11;;;;;;;80.05;24.02;;;;;;;-2.29;80.18;101691.56;10153132;29;20051;-75
2023/01/25 17:28:14;;;;;;;83.75;27.15;;;;;;;-2.22;80.33;101673.97;10155492;28;20044;-75
2023/01/25 17:33:17;;;;;;;99.03;27.95;;;;;;;-1.93;80.01;101668.44;10155121;28;20059;-74
2023/01/25 17:38:23;;;;;;;88.45;25.27;;;;;;;-2.04;80.04;101674.69;10140727;28;20519;-76
2023/01/25 17:43:26;;;;;;;85.93;25.88;;;;;;;-1.88;79.50;101664.00;10157300;28;20067;-75
2023/01/25 17:48:29;;;;;;;92.10;28.27;;;;;;;-2.12;79.21;101678.25;10157899;28;20051;-75
2023/01/25 17:53:33;;;;;;;104.70;31.08;;;;;;;-1.90;80.18;101684.22;10148987;28;20056;-76
2023/01/25 17:58:38;;;;;;;129.43;34.90;;;;;;;-1.74;79.87;101689.38;10146020;28;20043;-76
2023/01/25 18:03:40;;;;;;;129.35;39.17;;;;;;;-1.92;79.63;101682.47;10151082;28;20040;-76
2023/01/25 18:08:47;;;;;;;128.30;38.05;;;;;;;-1.58;79.18;101687.47;10157245;29;20048;-74
2023/01/25 18:13:53;;;;;;;129.10;37.17;;;;;;;-1.59;78.29;101665.50;10152094;28;20055;-76
2023/01/25 18:18:57;;;;;;;134.15;41.78;;;;;;;-2.15;78.61;101664.25;10135996;29;20048;-74
2023/01/25 18:24:07;;;;;;;140.05;42.85;;;;;;;-2.13;79.04;101655.47;10156036;28;20131;-75
2023/01/25 18:29:36;;;;;;;132.52;38.72;;;;;;;-2.37;79.42;101647.75;10152236;28;20106;-75
2023/01/25 18:34:39;;;;;;;144.63;44.50;;;;;;;-2.40;79.06;101643.38;10151232;29;20427;-76
2023/01/25 18:39:43;;;;;;;123.93;37.10;;;;;;;-2.76;79.93;101641.88;10143895;29;20061;-76
2023/01/25 18:44:47;;;;;;;136.70;40.35;;;;;;;-2.46;80.20;101643.44;10154488;29;21310;-74
2023/01/25 18:49:52;;;;;;;149.07;42.88;;;;;;;-2.37;78.79;101624.06;10161972;28;20103;-75
2023/01/25 18:54:56;;;;;;;130.90;39.90;;;;;;;-2.36;78.43;101620.53;10147683;28;20051;-76
2023/01/25 18:59:59;;;;;;;127.75;39.10;;;;;;;-2.63;78.89;101613.69;10148547;28;20499;-76
2023/01/25 19:05:02;;;;;;;130.35;40.78;;;;;;;-2.69;78.45;101606.72;10149757;28;21157;-76
2023/01/25 19:10:07;;;;;;;136.25;41.08;;;;;;;-2.44;77.24;101599.56;10171285;28;20110;-76
2023/01/25 19:15:11;;;;;;;131.40;39.55;;;;;;;-2.41;77.85;101589.00;10155748;28;20063;-74
2023/01/25 19:20:14;;;;;;;138.43;44.72;;;;;;;-1.93;77.71;101585.94;10140306;28;20131;-76
2023/01/25 19:25:18;;;;;;;135.15;43.40;;;;;;;-1.96;76.80;101564.88;10146801;28;20052;-76
2023/01/25 19:30:21;;;;;;;127.35;43.17;;;;;;;-2.26;77.06;101568.69;10149476;28;20052;-76
2023/01/25 19:35:24;;;;;;;111.25;38.15;;;;;;;-2.74;78.40;101567.31;10146403;28;20063;-76
2023/01/25 19:40:28;;;;;;;124.20;41.25;;;;;;;-2.34;77.20;101564.34;10144035;29;20056;-76
2023/01/25 19:45:31;;;;;;;122.72;37.97;;;;;;;-2.32;76.87;101545.94;10149088;28;20056;-75
2023/01/25 19:50:34;;;;;;;114.88;37.97;;;;;;;-2.33;77.86;101539.81;10153776;28;20420;-76
2023/01/25 19:55:38;;;;;;;118.20;41.85;;;;;;;-2.38;77.56;101546.00;10158523;28;20792;-76
2023/01/25 20:00:41;;;;;;;120.15;39.25;;;;;;;-2.41;78.33;101533.75;10146797;29;20052;-76
2023/01/25 20:05:44;;;;;;;123.43;41.50;;;;;;;-2.45;78.47;101528.50;10162701;28;20059;-73
2023/01/25 20:10:48;;;;;;;123.03;38.13;;;;;;;-2.58;77.63;101533.00;10162554;28;20047;-75
2023/01/25 20:15:51;;;;;;;114.10;40.30;;;;;;;-2.82;79.07;101515.66;10165179;28;20484;-75
2023/01/25 20:20:55;;;;;;;122.25;40.72;;;;;;;-2.42;78.20;101521.44;10160267;29;20111;-75
2023/01/25 20:26:02;;;;;;;136.38;44.35;;;;;;;-2.88;80.01;101513.06;10151214;28;20047;-76
2023/01/25 20:31:05;;;;;;;118.72;39.45;;;;;;;-2.32;78.40;101494.16;10152527;28;20060;-75
2023/01/25 20:36:08;;;;;;;124.18;40.97;;;;;;;-2.08;76.83;101510.59;10148277;29;20453;-76
2023/01/25 20:41:14;;;;;;;114.28;36.45;;;;;;;-2.21;76.47;101519.50;10138380;28;21249;-76
2023/01/25 20:46:18;;;;;;;108.15;35.72;;;;;;;-2.24;76.04;101506.38;10141676;28;20567;-76
2023/01/25 20:51:22;;;;;;;115.32;39.05;;;;;;;-2.40;76.81;101495.13;10151201;28;20059;-76
2023/01/25 20:56:27;;;;;;;99.53;38.08;;;;;;;-2.17;76.69;101502.78;10148674;28;20061;-76
2023/01/25 21:01:35;;;;;;;97.70;35.42;;;;;;;-2.39;77.01;101502.13;10138999;28;20171;-76
2023/01/25 21:06:38;;;;;;;112.32;40.03;;;;;;;-2.30;76.49;101496.78;10139780;28;20058;-76
2023/01/25 21:11:42;;;;;;;105.18;37.53;;;;;;;-2.23;76.09;101500.22;10158312;28;20067;-75
2023/01/25 21:16:45;;;;;;;97.80;33.55;;;;;;;-2.40;76.55;101498.63;10153679;28;20040;-76
2023/01/25 21:21:48;;;;;;;93.57;33.55;;;;;;;-2.46;75.70;101500.44;10146607;28;20060;-75
2023/01/25 21:26:52;;;;;;;92.55;31.73;;;;;;;-2.58;76.42;101493.53;10134936;29;20062;-76
2023/01/25 21:31:57;;;;;;;113.18;42.38;;;;;;;-2.40;76.85;101480.19;10158358;28;20056;-74
2023/01/25 21:37:00;;;;;;;103.55;38.95;;;;;;;-2.42;76.29;101483.72;10157051;28;20078;-76
2023/01/25 21:42:04;;;;;;;101.95;39.17;;;;;;;-2.25;75.20;101487.06;10145970;29;20048;-76
2023/01/25 21:47:07;;;;;;;99.00;35.00;;;;;;;-2.53;76.26;101470.66;10146002;28;20558;-74
2023/01/25 21:52:30;;;;;;;105.90;40.85;;;;;;;-2.49;76.22;101480.31;10157255;28;20058;-75
2023/01/25 21:57:34;;;;;;;108.20;40.13;;;;;;;-2.60;76.11;101497.94;10170269;28;20059;-76
2023/01/25 22:02:37;;;;;;;106.65;37.45;;;;;;;-2.93;76.42;101489.44;10180502;29;20587;-75
2023/01/25 22:07:40;;;;;;;101.63;34.00;;;;;;;-2.83;75.84;101479.72;10209786;23;20075;-75
2023/01/25 22:12:49;;;;;;;110.68;42.92;;;;;;;-2.79;76.58;101489.34;10206705;29;20103;-77
2023/01/25 22:17:52;;;;;;;108.78;39.05;;;;;;;-2.55;76.62;101494.38;10200179;29;20051;-75
2023/01/25 22:22:54;;;;;;;114.25;41.67;;;;;;;-2.05;75.71;101489.50;10195991;29;20507;-76
2023/01/25 22:28:00;;;;;;;124.38;44.80;;;;;;;-1.91;75.48;101484.06;10184001;29;20127;-76
2023/01/25 22:33:02;;;;;;;117.63;40.22;;;;;;;-2.14;75.26;101477.31;10194679;29;20472;-75
2023/01/25 22:38:05;;;;;;;119.13;40.95;;;;;;;-1.96;74.97;101470.09;10195045;29;20233;-76
2023/01/25 22:43:09;;;;;;;122.35;42.10;;;;;;;-2.11;74.28;101458.84;10184636;29;20062;-76
2023/01/25 22:48:12;;;;;;;124.40;43.25;;;;;;;-2.21;75.10;101456.31;10190638;29;20071;-77
2023/01/25 22:53:15;;;;;;;92.72;32.28;;;;;;;-2.67;74.80;101446.25;10194817;29;20052;-75
2023/01/25 22:58:19;;;;;;;115.97;41.50;;;;;;;-2.55;75.33;101428.59;10198653;29;20075;-76
2023/01/25 23:03:22;;;;;;;107.82;38.03;;;;;;;-2.43;75.15;101424.09;10187406;29;20071;-76